Time;durP1;ratioP1;P1;durP2;ratioP2;P2;SDS_P1;SDS_P2;PMS_P1;PMS_P2;Temp;Humidity;BMP_temperature;BMP_pressure;BME280_temperature;BME280_humidity;BME280_pressure;Samples;Min_cycle;Max_cycle;Signal;HPM_P1;HPM_P2
2023/06/04 00:01:04;;;;;;;;;;;12.70;85.40;;;;;;5054830;28;19958;-84
2023/06/04 00:03:35;;;;;;;;;;;12.70;85.20;;;;;;5063646;28;20006;-83
2023/06/04 00:06:01;;;;;;;;;;;12.60;85.50;;;;;;5058639;28;19909;-84
2023/06/04 00:08:26;;;;;;;;;;;12.50;85.70;;;;;;5074711;28;19919;-84
2023/06/04 00:10:52;;;;;;;;;;;12.40;85.80;;;;;;5075134;28;19908;-84
2023/06/04 00:13:17;;;;;;;;;;;12.40;86.40;;;;;;5074969;28;20363;-83
2023/06/04 00:15:43;;;;;;;;;;;12.40;86.30;;;;;;5074018;28;19909;-83
2023/06/04 00:18:10;;;;;;;;;;;12.40;86.40;;;;;;5076076;28;19908;-84
2023/06/04 00:20:36;;;;;;;;;;;12.40;86.30;;;;;;5074887;28;19905;-84
2023/06/04 00:23:02;;;;;;;;;;;12.30;86.40;;;;;;5074709;28;19908;-84
2023/06/04 00:25:27;;;;;;;;;;;12.30;86.50;;;;;;5074847;28;19904;-84
2023/06/04 00:27:53;;;;;;;;;;;12.30;86.50;;;;;;5074709;28;19908;-83
2023/06/04 00:30:19;;;;;;;;;;;12.30;86.40;;;;;;5057817;28;20010;-84
2023/06/04 00:32:46;;;;;;;;;;;12.30;86.40;;;;;;5074739;28;19904;-83
2023/06/04 00:35:12;;;;;;;;;;;12.30;86.10;;;;;;5074789;28;19908;-83
2023/06/04 00:37:38;;;;;;;;;;;12.30;86.30;;;;;;5074647;28;19965;-84
2023/06/04 00:40:05;;;;;;;;;;;12.30;86.50;;;;;;5074435;28;20360;-84
2023/06/04 00:42:31;;;;;;;;;;;12.20;86.50;;;;;;5073867;28;19908;-84
2023/06/04 00:44:57;;;;;;;;;;;12.20;86.90;;;;;;5074116;28;20057;-83
2023/06/04 00:47:23;;;;;;;;;;;12.10;86.80;;;;;;5074434;28;19931;-84
2023/06/04 00:49:48;;;;;;;;;;;12.10;87.30;;;;;;5073805;28;20363;-83
2023/06/04 00:52:15;;;;;;;;;;;12.00;87.60;;;;;;5057252;28;19904;-84
2023/06/04 00:54:40;;;;;;;;;;;12.00;87.40;;;;;;5057572;28;19908;-84
2023/06/04 00:57:07;;;;;;;;;;;12.00;87.60;;;;;;5073660;28;19909;-83
2023/06/04 00:59:33;;;;;;;;;;;12.00;87.80;;;;;;5074264;28;20005;-84
2023/06/04 01:02:05;;;;;;;;;;;11.90;87.40;;;;;;5073823;28;19909;-84
2023/06/04 01:04:45;;;;;;;;;;;11.90;88.00;;;;;;5074160;28;19908;-84
2023/06/04 01:07:13;;;;;;;;;;;11.90;88.00;;;;;;5068536;28;19908;-83
2023/06/04 01:09:38;;;;;;;;;;;11.80;88.70;;;;;;5074246;28;19958;-84
2023/06/04 01:12:05;;;;;;;;;;;11.80;88.80;;;;;;5074299;28;20373;-84
2023/06/04 01:14:33;;;;;;;;;;;11.70;89.00;;;;;;5073366;28;19912;-83
2023/06/04 01:17:08;;;;;;;;;;;11.70;88.90;;;;;;5074177;28;19996;-83
2023/06/04 01:19:51;;;;;;;;;;;11.80;89.00;;;;;;5073479;28;19908;-84
2023/06/04 01:22:22;;;;;;;;;;;11.90;88.70;;;;;;5056988;28;19923;-84
2023/06/04 01:24:52;;;;;;;;;;;12.00;88.80;;;;;;5073671;28;19939;-84
2023/06/04 01:27:19;;;;;;;;;;;12.10;87.40;;;;;;5074243;28;20121;-84
2023/06/04 01:29:45;;;;;;;;;;;12.20;87.40;;;;;;5058301;28;20432;-84
2023/06/04 01:32:11;;;;;;;;;;;12.20;86.60;;;;;;5089886;28;19959;-84
2023/06/04 01:34:43;;;;;;;;;;;12.30;86.80;;;;;;5073629;28;19971;-83
2023/06/04 01:37:11;;;;;;;;;;;12.30;86.50;;;;;;5070605;28;19939;-84
2023/06/04 01:39:37;;;;;;;;;;;12.20;86.40;;;;;;5084071;28;19905;-84
2023/06/04 01:42:11;;;;;;;;;;;12.20;86.20;;;;;;5056384;28;19908;-84
2023/06/04 01:44:37;;;;;;;;;;;12.20;86.20;;;;;;5055918;28;19912;-83
2023/06/04 01:47:03;;;;;;;;;;;12.10;86.30;;;;;;5073469;28;19954;-84
2023/06/04 01:49:28;;;;;;;;;;;12.10;86.20;;;;;;5055933;28;20829;-83
2023/06/04 01:51:56;;;;;;;;;;;12.00;86.00;;;;;;5073359;28;19908;-83
2023/06/04 01:54:22;;;;;;;;;;;12.00;86.70;;;;;;5073184;28;20337;-84
2023/06/04 01:56:48;;;;;;;;;;;11.90;86.70;;;;;;5073263;28;19909;-84
2023/06/04 01:59:16;;;;;;;;;;;11.80;86.80;;;;;;5073157;28;20379;-83
2023/06/04 02:01:41;;;;;;;;;;;11.80;86.80;;;;;;5073092;28;19908;-83
2023/06/04 02:04:07;;;;;;;;;;;11.70;87.30;;;;;;5073385;28;19916;-83
2023/06/04 02:06:42;;;;;;;;;;;11.60;87.60;;;;;;5074643;28;20049;-83
2023/06/04 02:09:08;;;;;;;;;;;11.50;88.00;;;;;;5066406;28;20007;-84
2023/06/04 02:11:36;;;;;;;;;;;11.50;88.30;;;;;;5056510;28;20343;-83
2023/06/04 02:14:02;;;;;;;;;;;11.40;87.50;;;;;;5056355;28;19908;-84
2023/06/04 02:16:28;;;;;;;;;;;11.40;88.00;;;;;;5073129;28;19895;-84
2023/06/04 02:18:53;;;;;;;;;;;11.50;88.30;;;;;;5073085;28;20064;-83
2023/06/04 02:21:19;;;;;;;;;;;11.50;87.80;;;;;;5072284;28;19908;-83
2023/06/04 02:23:45;;;;;;;;;;;11.50;87.60;;;;;;5072943;28;19912;-84
2023/06/04 02:26:11;;;;;;;;;;;11.50;87.70;;;;;;5073215;28;20268;-84
2023/06/04 02:28:36;;;;;;;;;;;11.40;87.70;;;;;;5076633;28;19909;-84
2023/06/04 02:31:02;;;;;;;;;;;11.50;87.40;;;;;;5076915;28;20275;-84
2023/06/04 02:33:28;;;;;;;;;;;11.40;87.40;;;;;;5076887;28;19930;-83
2023/06/04 02:35:53;;;;;;;;;;;11.40;87.40;;;;;;5074929;28;20015;-84
2023/06/04 02:38:19;;;;;;;;;;;11.40;87.40;;;;;;5077242;28;19912;-83
2023/06/04 02:40:44;;;;;;;;;;;11.40;87.70;;;;;;5076857;28;19908;-82
2023/06/04 02:43:11;;;;;;;;;;;11.40;88.00;;;;;;5076712;28;19912;-83
2023/06/04 02:45:36;;;;;;;;;;;11.40;87.60;;;;;;5076707;28;19915;-84
2023/06/04 02:48:02;;;;;;;;;;;11.30;87.40;;;;;;5076762;28;20275;-83
2023/06/04 02:50:27;;;;;;;;;;;11.40;87.10;;;;;;5076307;28;20070;-83
2023/06/04 02:52:53;;;;;;;;;;;11.40;87.00;;;;;;5076733;28;20367;-83
2023/06/04 02:55:18;;;;;;;;;;;11.50;86.60;;;;;;5076052;28;19916;-83
2023/06/04 02:57:44;;;;;;;;;;;11.50;86.70;;;;;;5076755;28;20002;-83
2023/06/04 03:00:14;;;;;;;;;;;11.50;86.50;;;;;;5076711;28;19958;-84
2023/06/04 03:02:44;;;;;;;;;;;11.40;86.70;;;;;;5076585;28;19916;-84
2023/06/04 03:05:10;;;;;;;;;;;11.40;86.60;;;;;;5076432;28;19909;-83
2023/06/04 03:07:37;;;;;;;;;;;11.40;86.80;;;;;;5076442;28;19995;-83
2023/06/04 03:10:03;;;;;;;;;;;11.40;87.10;;;;;;5076387;28;19935;-83
2023/06/04 03:12:30;;;;;;;;;;;11.40;86.30;;;;;;5076308;28;19908;-84
2023/06/04 03:14:56;;;;;;;;;;;11.40;86.40;;;;;;5076243;28;19939;-83
2023/06/04 03:17:22;;;;;;;;;;;11.30;86.20;;;;;;5076569;28;19904;-83
2023/06/04 03:19:48;;;;;;;;;;;11.30;86.60;;;;;;5058455;28;19915;-84
2023/06/04 03:22:14;;;;;;;;;;;11.30;86.70;;;;;;5075337;28;19909;-83
2023/06/04 03:24:40;;;;;;;;;;;11.40;86.50;;;;;;5074491;28;20003;-86
2023/06/04 03:27:07;;;;;;;;;;;11.40;87.10;;;;;;5076288;28;19893;-86
2023/06/04 03:29:33;;;;;;;;;;;11.50;86.50;;;;;;5075929;28;20299;-86
2023/06/04 03:32:01;;;;;;;;;;;11.50;86.30;;;;;;5074628;28;19912;-86
2023/06/04 03:34:31;;;;;;;;;;;11.60;85.60;;;;;;5074494;28;19916;-86
2023/06/04 03:36:57;;;;;;;;;;;11.60;85.60;;;;;;5075133;28;19915;-86
2023/06/04 03:39:23;;;;;;;;;;;11.70;85.50;;;;;;5074363;28;19916;-87
2023/06/04 03:41:48;;;;;;;;;;;11.80;85.70;;;;;;5075150;28;19909;-86
2023/06/04 03:44:24;;;;;;;;;;;11.80;85.40;;;;;;5075152;28;19961;-86
2023/06/04 03:46:50;;;;;;;;;;;11.80;85.10;;;;;;5058345;28;20299;-86
2023/06/04 03:49:21;;;;;;;;;;;11.80;84.90;;;;;;5074833;28;19912;-86
2023/06/04 03:51:47;;;;;;;;;;;11.80;85.60;;;;;;5075171;28;19915;-87
2023/06/04 03:54:16;;;;;;;;;;;11.70;85.30;;;;;;5075184;28;19905;-86
2023/06/04 03:56:43;;;;;;;;;;;11.70;85.30;;;;;;5075102;28;20412;-86
2023/06/04 03:59:11;;;;;;;;;;;11.70;85.50;;;;;;5075334;28;19908;-87
2023/06/04 04:01:36;;;;;;;;;;;11.70;86.00;;;;;;5074512;28;19916;-86
2023/06/04 04:04:02;;;;;;;;;;;11.70;85.40;;;;;;5074857;28;19908;-86
2023/06/04 04:06:28;;;;;;;;;;;11.70;85.60;;;;;;5074619;28;20374;-85
2023/06/04 04:08:53;;;;;;;;;;;11.80;85.40;;;;;;5074427;28;20363;-86
2023/06/04 04:11:21;;;;;;;;;;;11.80;85.40;;;;;;5057894;28;20338;-87
2023/06/04 04:16:52;;;;;;;;;;;11.80;85.80;;;;;;5072417;28;19947;-85
2023/06/04 04:19:18;;;;;;;;;;;11.80;86.00;;;;;;5074274;28;19909;-85
2023/06/04 04:21:43;;;;;;;;;;;11.80;86.00;;;;;;5074028;28;19909;-87
2023/06/04 04:24:09;;;;;;;;;;;11.70;86.40;;;;;;5073395;28;20324;-85
2023/06/04 04:26:35;;;;;;;;;;;11.70;86.60;;;;;;5074279;28;19912;-86
2023/06/04 04:29:01;;;;;;;;;;;11.80;86.50;;;;;;5074350;28;19951;-86
2023/06/04 04:31:30;;;;;;;;;;;11.80;86.40;;;;;;5023625;28;1469694;-87
2023/06/04 04:34:21;;;;;;;;;;;11.80;86.50;;;;;;5075552;28;19962;-86
2023/06/04 04:36:56;;;;;;;;;;;11.90;86.30;;;;;;5074947;28;20011;-86
2023/06/04 04:39:26;;;;;;;;;;;11.90;86.40;;;;;;5074895;28;19908;-86
2023/06/04 04:41:55;;;;;;;;;;;12.00;85.80;;;;;;5074958;28;19909;-86
2023/06/04 04:44:21;;;;;;;;;;;12.10;85.90;;;;;;5075246;28;19927;-86
2023/06/04 04:46:50;;;;;;;;;;;12.10;85.80;;;;;;5058384;28;19909;-86
2023/06/04 04:49:16;;;;;;;;;;;12.10;85.70;;;;;;5074021;28;19966;-87
2023/06/04 04:51:42;;;;;;;;;;;12.20;85.80;;;;;;5068210;28;19958;-87
2023/06/04 04:54:08;;;;;;;;;;;12.20;85.70;;;;;;5069824;28;20257;-86
2023/06/04 04:56:35;;;;;;;;;;;12.20;86.00;;;;;;5051332;28;19954;-85
2023/06/04 04:59:01;;;;;;;;;;;12.30;85.60;;;;;;5085774;28;19958;-85
2023/06/04 05:01:26;;;;;;;;;;;12.40;85.50;;;;;;5066841;28;20397;-87
2023/06/04 05:03:52;;;;;;;;;;;12.40;84.80;;;;;;5050920;28;19958;-86
2023/06/04 05:06:18;;;;;;;;;;;12.50;84.70;;;;;;5065624;28;19916;-85
2023/06/04 05:08:44;;;;;;;;;;;12.60;85.10;;;;;;5064706;28;19952;-85
2023/06/04 05:11:11;;;;;;;;;;;12.70;84.40;;;;;;5073698;28;20010;-86
2023/06/04 05:13:38;;;;;;;;;;;12.70;84.10;;;;;;5068614;28;19919;-85
2023/06/04 05:16:06;;;;;;;;;;;12.80;84.50;;;;;;5066592;28;19911;-86
2023/06/04 05:18:34;;;;;;;;;;;12.80;83.60;;;;;;5087565;28;19908;-87
2023/06/04 05:21:02;;;;;;;;;;;12.90;84.00;;;;;;5070209;28;19909;-86
2023/06/04 05:23:34;;;;;;;;;;;13.00;83.40;;;;;;5073475;28;19908;-86
2023/06/04 05:26:01;;;;;;;;;;;13.00;83.10;;;;;;5066644;28;19917;-86
2023/06/04 05:28:27;;;;;;;;;;;13.10;84.80;;;;;;5066137;28;19958;-86
2023/06/04 05:30:59;;;;;;;;;;;13.10;83.20;;;;;;5068648;28;20369;-86
2023/06/04 05:33:26;;;;;;;;;;;13.20;83.40;;;;;;5063203;28;19987;-86
2023/06/04 05:35:58;;;;;;;;;;;13.30;83.70;;;;;;5066037;28;20003;-87
2023/06/04 05:38:26;;;;;;;;;;;13.30;84.10;;;;;;5066185;28;19992;-86
2023/06/04 05:40:54;;;;;;;;;;;13.40;83.50;;;;;;5086923;28;19915;-86
2023/06/04 05:43:20;;;;;;;;;;;13.40;84.00;;;;;;5073661;28;20228;-87
2023/06/04 05:45:46;;;;;;;;;;;13.40;84.00;;;;;;5069813;28;19900;-87
2023/06/04 05:48:12;;;;;;;;;;;13.50;83.60;;;;;;5072278;28;19908;-87
2023/06/04 05:50:37;;;;;;;;;;;13.60;84.00;;;;;;5070009;28;20287;-87
2023/06/04 05:53:03;;;;;;;;;;;13.60;84.10;;;;;;5067405;28;19965;-86
2023/06/04 05:55:29;;;;;;;;;;;13.70;84.30;;;;;;5070617;28;19909;-87
2023/06/04 05:57:55;;;;;;;;;;;13.80;83.60;;;;;;5049552;28;19959;-87
2023/06/04 06:00:22;;;;;;;;;;;13.90;84.10;;;;;;5084194;28;20256;-87
2023/06/04 06:02:49;;;;;;;;;;;14.00;85.40;;;;;;5071925;28;19973;-86
2023/06/04 06:05:27;;;;;;;;;;;14.00;84.20;;;;;;5048642;28;20366;-87
2023/06/04 06:07:55;;;;;;;;;;;14.20;83.40;;;;;;5071069;28;19916;-87
2023/06/04 06:10:22;;;;;;;;;;;14.20;82.60;;;;;;5068476;28;19935;-87
2023/06/04 06:12:47;;;;;;;;;;;14.30;82.70;;;;;;5072097;28;19912;-87
2023/06/04 06:15:13;;;;;;;;;;;14.30;82.80;;;;;;5069186;28;19915;-86
2023/06/04 06:17:41;;;;;;;;;;;14.40;82.80;;;;;;5072401;28;19908;-88
2023/06/04 06:20:08;;;;;;;;;;;14.40;83.70;;;;;;5074484;28;19919;-87
2023/06/04 06:22:35;;;;;;;;;;;14.50;83.10;;;;;;5073928;28;19989;-86
2023/06/04 06:25:02;;;;;;;;;;;14.60;82.50;;;;;;5066236;28;19901;-88
2023/06/04 06:27:28;;;;;;;;;;;14.60;82.60;;;;;;5072354;28;19912;-88
2023/06/04 06:29:55;;;;;;;;;;;14.70;83.40;;;;;;5065269;28;19912;-87
2023/06/04 06:32:21;;;;;;;;;;;14.80;82.30;;;;;;5072915;28;19908;-87
2023/06/04 06:34:46;;;;;;;;;;;14.90;82.00;;;;;;5073619;28;20018;-87
2023/06/04 06:37:12;;;;;;;;;;;15.00;81.90;;;;;;5073773;28;19908;-87
2023/06/04 06:39:37;;;;;;;;;;;15.00;81.70;;;;;;5073374;28;19919;-87
2023/06/04 06:42:03;;;;;;;;;;;15.10;83.00;;;;;;5074229;28;19919;-87
2023/06/04 06:45:06;;;;;;;;;;;15.10;82.20;;;;;;5070729;28;20272;-87
2023/06/04 06:47:31;;;;;;;;;;;15.20;82.90;;;;;;5085211;28;19909;-87
2023/06/04 06:49:57;;;;;;;;;;;15.40;83.70;;;;;;5073520;28;19913;-87
2023/06/04 06:52:22;;;;;;;;;;;15.40;82.40;;;;;;5073581;28;19993;-87
2023/06/04 06:54:48;;;;;;;;;;;15.60;82.80;;;;;;5073819;28;19908;-86
2023/06/04 06:57:15;;;;;;;;;;;15.60;81.00;;;;;;5073949;28;19916;-87
2023/06/04 06:59:40;;;;;;;;;;;15.70;82.90;;;;;;5073618;28;19908;-87
2023/06/04 07:02:07;;;;;;;;;;;15.80;81.80;;;;;;5073344;28;20374;-87
2023/06/04 07:04:32;;;;;;;;;;;15.90;82.40;;;;;;5075957;28;19950;-87
2023/06/04 07:10:06;;;;;;;;;;;16.10;83.40;;;;;;5074657;28;19916;-87
2023/06/04 07:12:31;;;;;;;;;;;16.20;83.10;;;;;;5073902;28;19908;-88
2023/06/04 07:14:57;;;;;;;;;;;16.30;83.30;;;;;;5077601;28;19909;-88
2023/06/04 07:17:23;;;;;;;;;;;16.60;82.40;;;;;;5076435;28;19962;-88
2023/06/04 07:19:48;;;;;;;;;;;17.20;79.80;;;;;;5060213;28;19908;-87
2023/06/04 07:22:15;;;;;;;;;;;18.40;77.40;;;;;;5075915;28;19923;-88
2023/06/04 07:24:41;;;;;;;;;;;20.00;74.70;;;;;;5076129;28;19962;-87
2023/06/04 07:27:14;;;;;;;;;;;21.20;70.30;;;;;;5076964;28;19912;-87
2023/06/04 07:29:40;;;;;;;;;;;22.20;67.10;;;;;;5077375;28;19916;-87
2023/06/04 07:32:06;;;;;;;;;;;23.00;65.00;;;;;;5076538;28;20007;-87
2023/06/04 07:34:32;;;;;;;;;;;23.40;63.80;;;;;;5076844;28;20382;-88
2023/06/04 07:36:57;;;;;;;;;;;22.90;63.40;;;;;;5077302;28;20252;-87
2023/06/04 07:39:23;;;;;;;;;;;21.70;65.10;;;;;;5076522;28;19908;-86
2023/06/04 07:41:48;;;;;;;;;;;20.50;68.20;;;;;;5076309;28;19923;-88
2023/06/04 07:44:14;;;;;;;;;;;19.50;71.00;;;;;;5075991;28;19998;-87
2023/06/04 07:46:39;;;;;;;;;;;18.90;73.80;;;;;;5059739;28;20356;-87
2023/06/04 07:49:05;;;;;;;;;;;18.60;75.10;;;;;;5076720;28;20008;-87
2023/06/04 07:51:30;;;;;;;;;;;18.40;75.30;;;;;;5076309;28;19916;-88
2023/06/04 07:54:13;;;;;;;;;;;18.30;76.50;;;;;;5076116;28;20358;-86
2023/06/04 07:59:40;;;;;;;;;;;20.30;74.20;;;;;;5110585;28;19912;-88
2023/06/04 08:02:06;;;;;;;;;;;22.70;68.50;;;;;;5076196;28;19939;-84
2023/06/04 08:04:33;;;;;;;;;;;24.20;64.10;;;;;;5076586;28;19913;-86
2023/06/04 08:06:58;;;;;;;;;;;25.10;61.80;;;;;;5074757;28;19912;-87
2023/06/04 08:09:24;;;;;;;;;;;26.10;60.00;;;;;;5077317;28;19961;-85
2023/06/04 08:11:50;;;;;;;;;;;26.80;58.70;;;;;;5058670;28;19915;-85
2023/06/04 08:14:15;;;;;;;;;;;26.70;58.30;;;;;;5076272;28;19909;-86
2023/06/04 08:16:41;;;;;;;;;;;26.60;59.00;;;;;;5075648;28;19908;-85
2023/06/04 08:19:07;;;;;;;;;;;26.40;57.60;;;;;;5093040;28;19909;-86
2023/06/04 08:21:33;;;;;;;;;;;26.50;57.60;;;;;;5076448;28;19908;-86
2023/06/04 08:23:59;;;;;;;;;;;26.40;57.10;;;;;;5074362;28;20469;-86
2023/06/04 08:26:26;;;;;;;;;;;26.20;57.50;;;;;;5074777;28;19908;-85
2023/06/04 08:28:52;;;;;;;;;;;26.40;56.30;;;;;;5075818;28;19913;-86
2023/06/04 08:31:18;;;;;;;;;;;27.30;55.40;;;;;;5075773;28;20343;-85
2023/06/04 08:34:05;;;;;;;;;;;27.60;52.70;;;;;;5075604;28;19915;-85
2023/06/04 08:39:59;;;;;;;;;;;27.20;53.60;;;;;;5075844;28;19916;-86
2023/06/04 08:42:29;;;;;;;;;;;26.90;52.60;;;;;;5075220;28;19908;-85
2023/06/04 08:44:56;;;;;;;;;;;26.90;51.40;;;;;;5075304;28;19987;-86
2023/06/04 08:47:23;;;;;;;;;;;26.70;50.40;;;;;;5075739;28;20319;-88
2023/06/04 08:49:50;;;;;;;;;;;26.80;50.40;;;;;;5075145;28;19908;-86
2023/06/04 08:52:16;;;;;;;;;;;26.80;50.50;;;;;;5075154;28;19915;-85
2023/06/04 08:54:42;;;;;;;;;;;27.00;51.00;;;;;;5075445;28;20419;-85
2023/06/04 08:57:08;;;;;;;;;;;27.40;49.20;;;;;;5075134;28;19912;-86
2023/06/04 08:59:35;;;;;;;;;;;27.10;50.90;;;;;;5058817;28;19908;-86
2023/06/04 09:02:01;;;;;;;;;;;27.20;49.80;;;;;;5080238;28;19904;-86
2023/06/04 09:04:27;;;;;;;;;;;27.00;49.90;;;;;;5076110;28;19973;-86
2023/06/04 09:06:53;;;;;;;;;;;27.00;49.30;;;;;;5074533;28;19908;-86
2023/06/04 09:09:19;;;;;;;;;;;27.10;50.00;;;;;;5075926;28;20363;-87
2023/06/04 09:11:52;;;;;;;;;;;27.30;51.90;;;;;;5075616;28;20050;-87
2023/06/04 09:14:18;;;;;;;;;;;26.70;49.90;;;;;;5075280;28;19997;-87
2023/06/04 09:16:44;;;;;;;;;;;26.70;50.80;;;;;;5074331;28;19908;-87
2023/06/04 09:19:09;;;;;;;;;;;27.10;49.00;;;;;;5074732;28;19951;-87
2023/06/04 09:21:45;;;;;;;;;;;27.00;49.60;;;;;;5074257;28;20352;-87
2023/06/04 09:24:14;;;;;;;;;;;27.10;49.80;;;;;;5109536;28;20375;-88
2023/06/04 09:26:39;;;;;;;;;;;27.40;48.70;;;;;;5075193;28;20391;-86
2023/06/04 09:29:05;;;;;;;;;;;27.70;48.80;;;;;;5074667;28;19916;-87
2023/06/04 09:31:36;;;;;;;;;;;27.80;50.00;;;;;;5074090;28;20266;-87
2023/06/04 09:34:02;;;;;;;;;;;27.90;49.40;;;;;;5074398;28;19998;-87
2023/06/04 09:36:31;;;;;;;;;;;28.10;49.80;;;;;;5068965;28;19951;-87
2023/06/04 09:38:57;;;;;;;;;;;28.00;50.30;;;;;;5071836;28;19908;-87
2023/06/04 09:41:22;;;;;;;;;;;27.30;48.90;;;;;;5103315;28;20346;-88
2023/06/04 09:43:49;;;;;;;;;;;26.90;50.40;;;;;;5065915;28;20038;-87
2023/06/04 09:46:16;;;;;;;;;;;27.40;49.30;;;;;;5074690;28;19919;-88
2023/06/04 09:48:42;;;;;;;;;;;27.90;48.60;;;;;;5055335;28;20348;-87
2023/06/04 09:51:08;;;;;;;;;;;27.60;48.70;;;;;;5072060;28;19908;-87
2023/06/04 09:53:34;;;;;;;;;;;27.30;49.10;;;;;;5073580;28;19915;-87
2023/06/04 09:56:01;;;;;;;;;;;27.70;49.00;;;;;;5099028;28;19908;-87
2023/06/04 09:58:27;;;;;;;;;;;27.50;47.90;;;;;;5063493;28;19908;-88
2023/06/04 10:00:55;;;;;;;;;;;27.30;47.80;;;;;;5071816;28;19913;-87
2023/06/04 10:03:25;;;;;;;;;;;27.30;48.10;;;;;;5075744;28;19999;-88
2023/06/04 10:05:55;;;;;;;;;;;27.50;48.80;;;;;;5070434;28;19909;-88
2023/06/04 10:08:43;;;;;;;;;;;27.50;47.50;;;;;;5081332;28;19966;-87
2023/06/04 10:11:08;;;;;;;;;;;27.00;48.40;;;;;;5084369;28;20363;-87
2023/06/04 10:13:56;;;;;;;;;;;26.00;49.00;;;;;;5084383;28;19999;-88
2023/06/04 10:16:23;;;;;;;;;;;25.00;49.30;;;;;;5065281;28;19909;-88
2023/06/04 10:18:52;;;;;;;;;;;24.80;51.50;;;;;;5077877;28;19909;-87
2023/06/04 10:21:18;;;;;;;;;;;24.80;51.00;;;;;;5074441;28;19999;-88
2023/06/04 10:23:44;;;;;;;;;;;24.80;51.30;;;;;;5060344;28;20343;-88
2023/06/04 10:26:13;;;;;;;;;;;24.90;52.30;;;;;;5067572;28;19908;-87
2023/06/04 10:28:40;;;;;;;;;;;24.70;52.60;;;;;;5072255;28;20003;-87
2023/06/04 10:31:06;;;;;;;;;;;24.70;51.30;;;;;;5077365;28;19923;-87
2023/06/04 10:33:31;;;;;;;;;;;24.90;51.10;;;;;;5083266;28;20351;-88
2023/06/04 10:35:57;;;;;;;;;;;25.00;49.70;;;;;;5072443;28;19913;-87
2023/06/04 10:38:23;;;;;;;;;;;24.90;48.70;;;;;;5081217;28;20207;-87
2023/06/04 10:40:49;;;;;;;;;;;25.10;50.00;;;;;;5073632;28;20004;-88
2023/06/04 10:43:17;;;;;;;;;;;25.10;51.30;;;;;;5056990;28;20016;-88
2023/06/04 10:45:45;;;;;;;;;;;25.20;51.90;;;;;;5073057;28;19956;-87
2023/06/04 10:48:11;;;;;;;;;;;25.10;52.90;;;;;;5092007;28;20007;-88
2023/06/04 10:50:50;;;;;;;;;;;25.60;53.30;;;;;;5078619;28;19920;-87
2023/06/04 10:53:17;;;;;;;;;;;25.40;51.40;;;;;;5078647;28;19919;-87
2023/06/04 10:55:46;;;;;;;;;;;25.10;52.20;;;;;;5078100;28;19912;-87
2023/06/04 10:58:12;;;;;;;;;;;25.10;49.80;;;;;;5076436;28;19908;-86
2023/06/04 11:00:38;;;;;;;;;;;24.90;49.40;;;;;;5077555;28;19912;-87
2023/06/04 11:03:11;;;;;;;;;;;25.10;48.80;;;;;;5060082;28;20421;-88
2023/06/04 11:05:37;;;;;;;;;;;25.00;50.80;;;;;;5076291;28;19999;-88
2023/06/04 11:08:04;;;;;;;;;;;25.10;51.00;;;;;;5075992;28;19958;-88
2023/06/04 11:10:33;;;;;;;;;;;25.20;49.00;;;;;;5076632;28;19912;-87
2023/06/04 11:12:59;;;;;;;;;;;25.40;50.30;;;;;;5076510;28;19915;-88
2023/06/04 11:15:25;;;;;;;;;;;25.80;52.20;;;;;;5076506;28;19908;-87
2023/06/04 11:17:51;;;;;;;;;;;26.40;51.50;;;;;;5076706;28;19910;-88
2023/06/04 11:20:30;;;;;;;;;;;26.50;50.10;;;;;;5076249;28;19905;-87
2023/06/04 11:22:56;;;;;;;;;;;26.90;48.40;;;;;;5076791;28;20491;-87
2023/06/04 11:25:37;;;;;;;;;;;26.70;50.80;;;;;;5076379;28;19912;-88
2023/06/04 11:28:03;;;;;;;;;;;26.80;50.00;;;;;;5076945;28;19912;-87
2023/06/04 11:30:28;;;;;;;;;;;26.30;48.90;;;;;;5060068;28;19919;-87
2023/06/04 11:33:01;;;;;;;;;;;25.90;49.40;;;;;;5076352;28;19908;-88
2023/06/04 11:35:27;;;;;;;;;;;26.10;50.10;;;;;;5072620;28;19909;-88
2023/06/04 11:37:54;;;;;;;;;;;26.10;51.00;;;;;;5075554;28;19904;-87
2023/06/04 11:40:20;;;;;;;;;;;26.30;47.70;;;;;;5072407;28;20011;-88
2023/06/04 11:42:46;;;;;;;;;;;26.60;48.30;;;;;;5075153;28;19956;-87
2023/06/04 11:45:13;;;;;;;;;;;26.20;46.80;;;;;;5072803;28;20272;-87
2023/06/04 11:47:38;;;;;;;;;;;25.40;47.10;;;;;;5066994;28;20011;-88
2023/06/04 11:50:04;;;;;;;;;;;25.40;48.00;;;;;;5074659;28;20367;-87
2023/06/04 11:52:30;;;;;;;;;;;25.50;48.90;;;;;;5065419;28;19904;-88
2023/06/04 11:54:55;;;;;;;;;;;25.80;48.80;;;;;;5066116;28;19913;-88
2023/06/04 11:57:21;;;;;;;;;;;26.00;48.80;;;;;;5074940;28;19909;-87
2023/06/04 11:59:47;;;;;;;;;;;25.50;48.50;;;;;;5071538;28;19909;-88
2023/06/04 12:02:13;;;;;;;;;;;25.20;47.40;;;;;;5067777;28;19909;-87
2023/06/04 12:04:38;;;;;;;;;;;25.40;49.40;;;;;;5068384;28;19913;-88
2023/06/04 12:07:05;;;;;;;;;;;25.60;47.50;;;;;;5083847;28;19909;-88
2023/06/04 12:09:32;;;;;;;;;;;25.60;49.90;;;;;;5063101;28;19954;-87
2023/06/04 12:11:58;;;;;;;;;;;25.50;48.60;;;;;;5068389;28;19999;-87
2023/06/04 12:14:34;;;;;;;;;;;25.30;48.80;;;;;;5075224;28;19915;-88
2023/06/04 12:16:59;;;;;;;;;;;25.20;49.70;;;;;;5072462;28;19908;-88
2023/06/04 12:19:45;;;;;;;;;;;25.50;46.70;;;;;;5059238;28;19908;-88
2023/06/04 12:22:11;;;;;;;;;;;25.70;49.30;;;;;;5065870;28;19908;-88
2023/06/04 12:24:46;;;;;;;;;;;25.90;48.80;;;;;;5052580;28;19953;-88
2023/06/04 12:27:12;;;;;;;;;;;25.70;48.40;;;;;;5089703;28;19909;-88
2023/06/04 12:29:38;;;;;;;;;;;26.10;47.50;;;;;;5070622;28;19919;-88
2023/06/04 12:32:04;;;;;;;;;;;26.70;47.10;;;;;;5066890;28;19967;-89
2023/06/04 12:34:30;;;;;;;;;;;27.20;46.50;;;;;;5052463;28;20358;-88
2023/06/04 12:36:56;;;;;;;;;;;27.40;48.10;;;;;;5066646;28;19913;-87
2023/06/04 12:39:36;;;;;;;;;;;27.80;44.20;;;;;;5077768;28;19957;-88
2023/06/04 12:42:02;;;;;;;;;;;28.00;41.80;;;;;;5062965;28;19912;-88
2023/06/04 12:44:28;;;;;;;;;;;28.70;44.00;;;;;;5060371;28;20370;-88
2023/06/04 12:47:28;;;;;;;;;;;29.10;44.00;;;;;;5066051;28;19991;-89
2023/06/04 12:49:53;;;;;;;;;;;28.90;43.20;;;;;;5072568;28;19913;-89
2023/06/04 12:52:19;;;;;;;;;;;28.80;43.10;;;;;;5070416;28;20383;-88
2023/06/04 12:54:45;;;;;;;;;;;28.20;42.90;;;;;;5063412;28;19915;-88
2023/06/04 12:57:10;;;;;;;;;;;28.30;43.80;;;;;;5067160;28;19995;-87
2023/06/04 12:59:36;;;;;;;;;;;28.50;44.50;;;;;;5061806;28;20422;-87
2023/06/04 13:02:01;;;;;;;;;;;28.50;44.90;;;;;;5089278;28;19914;-87
2023/06/04 13:04:27;;;;;;;;;;;29.10;45.20;;;;;;5071740;28;19915;-88
2023/06/04 13:06:55;;;;;;;;;;;29.10;44.20;;;;;;5064319;28;19958;-89
2023/06/04 13:09:22;;;;;;;;;;;28.50;42.20;;;;;;5077799;28;20278;-89
2023/06/04 13:11:48;;;;;;;;;;;28.00;42.40;;;;;;5076846;28;19908;-88
2023/06/04 13:14:14;;;;;;;;;;;27.80;42.90;;;;;;5074867;28;19904;-88
2023/06/04 13:16:39;;;;;;;;;;;27.80;44.70;;;;;;5074607;28;19908;-87
2023/06/04 13:19:05;;;;;;;;;;;28.30;42.00;;;;;;5074761;28;20331;-87
2023/06/04 13:21:31;;;;;;;;;;;28.40;41.20;;;;;;5074105;28;19908;-87
2023/06/04 13:23:56;;;;;;;;;;;28.80;42.50;;;;;;5074395;28;20267;-87
2023/06/04 13:26:31;;;;;;;;;;;29.20;42.10;;;;;;5074467;28;19909;-86
2023/06/04 13:28:57;;;;;;;;;;;28.90;41.10;;;;;;5075131;28;19912;-87
2023/06/04 13:31:22;;;;;;;;;;;28.80;41.10;;;;;;5073857;28;19919;-87
2023/06/04 13:33:48;;;;;;;;;;;28.10;42.90;;;;;;5056423;28;19908;-87
2023/06/04 13:36:13;;;;;;;;;;;28.00;43.40;;;;;;5073619;28;19954;-88
2023/06/04 13:38:41;;;;;;;;;;;28.30;41.70;;;;;;5073806;28;20002;-87
2023/06/04 13:44:13;;;;;;;;;;;27.90;44.50;;;;;;5066170;28;19909;-88
2023/06/04 13:46:40;;;;;;;;;;;27.50;44.70;;;;;;5073451;28;19958;-87
2023/06/04 13:49:06;;;;;;;;;;;28.00;43.30;;;;;;5071695;28;19958;-87
2023/06/04 13:51:31;;;;;;;;;;;28.40;44.60;;;;;;5069817;28;19909;-88
2023/06/04 13:53:58;;;;;;;;;;;28.90;44.10;;;;;;5087382;28;19908;-87
2023/06/04 13:56:25;;;;;;;;;;;29.30;44.50;;;;;;5059612;28;19915;-88
2023/06/04 13:58:50;;;;;;;;;;;29.00;45.80;;;;;;5067820;28;19959;-87
2023/06/04 14:01:16;;;;;;;;;;;28.50;43.90;;;;;;5070668;28;19916;-88
2023/06/04 14:07:10;;;;;;;;;;;28.50;44.80;;;;;;5069069;28;19915;-87
2023/06/04 14:09:36;;;;;;;;;;;29.20;44.40;;;;;;5073719;28;19912;-87
2023/06/04 14:12:02;;;;;;;;;;;29.40;43.80;;;;;;5066956;28;19950;-87
2023/06/04 14:14:30;;;;;;;;;;;29.50;42.90;;;;;;5061848;28;20368;-88
2023/06/04 14:16:57;;;;;;;;;;;29.90;42.90;;;;;;5062321;28;19963;-88
2023/06/04 14:19:22;;;;;;;;;;;29.50;44.20;;;;;;5073227;28;20359;-87
2023/06/04 14:21:48;;;;;;;;;;;29.70;44.30;;;;;;5070638;28;19912;-87
2023/06/04 14:24:13;;;;;;;;;;;29.70;43.30;;;;;;5077380;28;19951;-88
2023/06/04 14:26:39;;;;;;;;;;;29.70;42.70;;;;;;5076975;28;19953;-88
2023/06/04 14:29:05;;;;;;;;;;;30.10;42.50;;;;;;5060183;28;20364;-87
2023/06/04 14:31:30;;;;;;;;;;;29.70;43.70;;;;;;5059584;28;20363;-87
2023/06/04 14:33:56;;;;;;;;;;;29.20;44.30;;;;;;5090174;28;19912;-88
2023/06/04 14:36:21;;;;;;;;;;;28.70;44.10;;;;;;5076495;28;19908;-87